Terminal Aerodrome Forecast
Issued by NWS Wilmington, OH

Current Version | Previous Version | Text Only | Print | Product List | Glossary Off
Versions: 1 2 3 4 5 6 7 8 9 10 11 12 13 14 15 16 17 18 19 20 21 22 23

000
FTUS41 KILN 171100
TAFDAY
TAF
KDAY 171140Z 1712/1812 19004KT 3SM BR BKN070 OVC140
     FM171300 18005KT P6SM SCT050 OVC080
     FM171800 17007KT P6SM VCSH OVC050
     FM172200 15005KT P6SM OVC050
     FM180500 12005KT 4SM BR OVC025=

USA.gov is the U.S. government's official web portal to all federal, state and local government web resources and services.